createdAt,value
2018-11-22T12:15:54.445Z,18.30
2018-11-22T12:18:23.475Z,19.90
2018-11-22T12:20:51.709Z,23.10
2018-11-22T12:23:19.928Z,18.52
2018-11-22T12:25:48.338Z,16.97
2018-11-22T12:28:20.388Z,22.55
2018-11-22T12:30:48.812Z,20.75
2018-11-22T12:33:22.352Z,14.07
2018-11-22T12:35:56.061Z,17.67
2018-11-22T12:38:29.798Z,19.98
2018-11-22T12:40:58.116Z,21.03
2018-11-22T12:43:29.806Z,18.30
2018-11-22T12:45:58.066Z,20.37
2018-11-22T12:48:26.260Z,16.50
2018-11-22T12:50:54.486Z,21.12
2018-11-22T12:53:22.808Z,18.00
2018-11-22T12:58:52.486Z,19.60
2018-11-22T13:01:21.673Z,15.90
2018-11-22T13:03:49.858Z,15.75
2018-11-22T13:06:18.114Z,18.77
2018-11-22T13:08:46.369Z,18.87
2018-11-22T13:11:14.625Z,16.93
2018-11-22T13:13:42.873Z,14.03
2018-11-22T13:16:11.128Z,18.87
2018-11-22T13:18:39.573Z,13.40
2018-11-22T13:21:08.729Z,17.73
2018-11-22T13:23:36.965Z,13.67
2018-11-22T13:26:06.044Z,13.23
2018-11-22T13:28:34.263Z,21.93
2018-11-22T13:31:02.474Z,11.63
2018-11-22T13:33:30.745Z,15.20
2018-11-22T13:35:58.998Z,16.87
2018-11-22T13:38:27.176Z,20.60
2018-11-22T13:40:55.377Z,14.47
2018-11-22T13:43:26.817Z,16.57
2018-11-22T13:45:55.774Z,20.25
2018-11-22T13:48:24.052Z,17.80
2018-11-22T13:50:52.279Z,19.63
2018-11-22T13:53:20.746Z,13.63
2018-11-22T13:55:48.721Z,19.80
2018-11-22T13:58:20.340Z,13.57
2018-11-22T14:00:48.550Z,18.20
2018-11-22T14:03:16.817Z,16.40
2018-11-22T14:05:45.857Z,16.74
2018-11-22T14:08:14.088Z,15.23
2018-11-22T14:10:42.336Z,16.10
2018-11-22T14:13:10.908Z,14.13
2018-11-22T14:15:40.053Z,14.23
2018-11-22T14:18:08.304Z,23.20
2018-11-22T14:20:37.050Z,16.57
2018-11-22T14:23:05.581Z,18.55
2018-11-22T14:25:33.854Z,15.38
2018-11-22T14:28:02.553Z,15.37
2018-11-22T14:30:32.503Z,16.60
2018-11-22T14:33:00.812Z,14.03
2018-11-22T14:35:29.933Z,16.05
2018-11-22T14:37:58.140Z,13.20
2018-11-22T14:40:27.846Z,21.70
2018-11-22T14:42:56.662Z,17.15
2018-11-22T14:45:25.678Z,18.42
2018-11-22T14:47:55.125Z,13.73
2018-11-22T14:50:29.125Z,15.43
2018-11-22T14:53:05.081Z,19.50
2018-11-22T14:55:34.244Z,18.30
2018-11-22T14:58:02.586Z,18.12
2018-11-22T15:00:30.775Z,22.32
2018-11-22T15:02:59.062Z,16.57
2018-11-22T15:05:27.404Z,14.83
2018-11-22T15:07:55.725Z,23.27
2018-11-22T15:10:23.938Z,18.90
2018-11-22T15:12:52.521Z,17.55
2018-11-22T15:15:22.248Z,16.07
2018-11-22T15:17:50.492Z,20.70
2018-11-22T15:20:19.688Z,18.30
2018-11-22T15:22:48.716Z,16.52
2018-11-22T15:25:18.571Z,21.57
2018-11-22T15:27:47.469Z,20.45
2018-11-22T15:30:18.096Z,21.33
2018-11-22T15:32:46.376Z,16.70
2018-11-22T15:35:15.818Z,15.25
2018-11-22T15:37:44.193Z,15.33
2018-11-22T15:40:14.366Z,13.83
2018-11-22T15:42:43.569Z,18.87
2018-11-22T15:45:17.963Z,14.98
2018-11-22T15:47:46.420Z,18.80
2018-11-22T15:50:16.061Z,13.43
2018-11-22T15:52:44.439Z,18.83
2018-11-22T15:55:20.436Z,16.23
2018-11-22T15:57:44.196Z,16.95
2018-11-22T16:00:18.625Z,19.40
2018-11-22T16:02:47.478Z,17.07
2018-11-22T16:05:16.185Z,20.60
2018-11-22T16:07:45.729Z,19.85
2018-11-22T16:15:22.831Z,18.20
2018-11-22T16:17:52.413Z,17.70
2018-11-22T16:20:20.768Z,21.87
2018-11-22T16:22:48.994Z,21.10
2018-11-22T16:25:17.228Z,18.23
2018-11-22T16:27:45.488Z,22.13
2018-11-22T16:30:18.321Z,21.60
2018-11-22T16:32:47.474Z,24.17
2018-11-22T16:35:16.577Z,22.90
2018-11-22T16:37:45.178Z,22.02
2018-11-22T16:40:15.862Z,23.90
2018-11-22T16:42:45.140Z,18.90
2018-11-22T16:45:27.728Z,22.67
2018-11-22T16:47:56.598Z,20.73
2018-11-22T16:50:26.080Z,21.10
2018-11-22T16:52:55.911Z,24.43
2018-11-22T16:55:25.773Z,21.50
2018-11-22T16:57:55.428Z,25.30
2018-11-22T17:00:32.173Z,23.00
2018-11-22T17:03:01.960Z,21.23
2018-11-22T17:05:30.605Z,22.07
2018-11-22T17:07:59.428Z,20.90
2018-11-22T17:10:28.827Z,22.50
2018-11-22T17:12:58.385Z,27.13
2018-11-22T17:15:28.936Z,20.88
2018-11-22T17:17:58.516Z,24.13
2018-11-22T17:20:27.845Z,23.57
2018-11-22T17:22:56.196Z,27.57
2018-11-22T17:25:26.169Z,24.13
2018-11-22T17:27:56.147Z,24.97
2018-11-22T17:30:26.791Z,22.77
2018-11-22T17:33:02.980Z,26.53
2018-11-22T17:35:31.697Z,29.80
2018-11-22T17:38:01.045Z,31.57
2018-11-22T17:40:31.139Z,22.53
2018-11-22T17:43:00.366Z,26.13
2018-11-22T17:45:30.666Z,21.70
2018-11-22T17:47:58.999Z,25.03
2018-11-22T17:50:31.302Z,25.77
2018-11-22T17:52:59.774Z,25.93
2018-11-22T17:55:28.864Z,28.47
2018-11-22T17:57:57.166Z,27.70
2018-11-22T18:00:26.891Z,26.20
2018-11-22T18:03:00.432Z,19.55
2018-11-22T18:05:28.831Z,22.20
2018-11-22T18:07:57.085Z,24.40
2018-11-22T18:10:30.659Z,27.85
2018-11-22T18:12:59.285Z,22.30
2018-11-22T18:15:28.357Z,26.83
2018-11-22T18:17:57.480Z,26.00
2018-11-22T18:20:27.123Z,27.47
2018-11-22T18:22:56.476Z,29.97
2018-11-22T18:25:26.275Z,23.20
2018-11-22T18:27:54.684Z,28.37
2018-11-22T18:30:26.291Z,26.00
2018-11-22T18:32:59.501Z,24.77
2018-11-22T18:35:27.705Z,22.50
2018-11-22T18:37:56.526Z,30.57
2018-11-22T18:40:27.022Z,27.37
2018-11-22T18:42:56.146Z,24.00
2018-11-22T18:45:30.279Z,26.93
2018-11-22T18:47:58.889Z,28.10
2018-11-22T18:50:28.327Z,30.60
2018-11-22T18:52:56.888Z,27.73
2018-11-22T18:55:25.261Z,26.70
2018-11-22T18:57:53.469Z,25.73
2018-11-22T19:00:24.632Z,26.67
2018-11-22T19:02:59.222Z,28.13
2018-11-22T19:05:27.529Z,22.93
2018-11-22T19:07:56.824Z,27.95
2018-11-22T19:10:28.494Z,24.30
2018-11-22T19:12:58.058Z,29.30
2018-11-22T19:15:27.806Z,28.05
2018-11-22T19:18:00.840Z,25.60
2018-11-22T19:20:31.187Z,31.15
2018-11-22T19:23:00.308Z,25.10
2018-11-22T19:25:28.537Z,25.50
2018-11-22T19:27:57.581Z,28.95
2018-11-22T19:30:27.194Z,23.50
2018-11-22T19:32:56.617Z,28.80
2018-11-22T19:35:27.296Z,29.00
2018-11-22T19:37:55.565Z,29.20
2018-11-22T19:40:25.328Z,25.30
2018-11-22T19:42:54.812Z,22.75
2018-11-22T19:45:25.019Z,27.40
2018-11-22T19:47:54.041Z,29.65
2018-11-22T19:50:23.433Z,28.77
2018-11-22T19:52:52.122Z,26.70
2018-11-22T19:55:21.977Z,30.27
2018-11-22T19:57:51.961Z,27.63
2018-11-22T20:00:20.705Z,25.43
2018-11-22T20:02:50.555Z,24.44
2018-11-22T20:05:20.240Z,26.60
2018-11-22T20:07:50.281Z,27.90
2018-11-22T20:10:21.091Z,23.40
2018-11-22T20:12:49.452Z,27.35
2018-11-22T20:15:17.899Z,25.97
2018-11-22T20:17:47.252Z,27.97
2018-11-22T20:20:16.421Z,24.20
2018-11-22T20:22:45.278Z,24.65
2018-11-22T20:25:13.491Z,28.07
2018-11-22T20:27:42.021Z,28.07
2018-11-22T20:30:14.905Z,30.77
2018-11-22T20:32:43.285Z,31.97
2018-11-22T20:35:13.509Z,29.73
2018-11-22T20:37:42.125Z,29.27
2018-11-22T20:40:12.217Z,31.57
2018-11-22T20:42:41.595Z,28.07
2018-11-22T20:45:11.733Z,31.10
2018-11-22T20:47:40.825Z,28.70
2018-11-22T20:50:11.535Z,26.80
2018-11-22T20:52:39.783Z,30.90
2018-11-22T20:55:10.557Z,31.97
2018-11-22T20:57:38.968Z,27.57
2018-11-22T21:00:10.809Z,25.75
2018-11-22T21:02:39.125Z,22.43
2018-11-22T21:05:11.099Z,29.90
2018-11-22T21:07:39.623Z,30.30
2018-11-22T21:10:10.195Z,36.03
2018-11-22T21:12:38.852Z,37.23
2018-11-22T21:15:10.912Z,32.58
2018-11-22T21:17:39.298Z,31.27
2018-11-22T21:20:13.547Z,42.67
2018-11-22T21:22:44.631Z,37.30
2018-11-22T21:25:14.028Z,36.83
2018-11-22T21:27:42.387Z,36.75
2018-11-22T21:30:12.954Z,44.63
2018-11-22T21:32:41.231Z,35.90
2018-11-22T21:35:13.023Z,46.03
2018-11-22T21:37:41.312Z,38.17
2018-11-22T21:40:10.468Z,35.43
2018-11-22T21:42:39.072Z,36.10
2018-11-22T21:45:10.308Z,34.30
2018-11-22T21:47:38.573Z,35.00
2018-11-22T21:50:07.824Z,35.37
2018-11-22T21:52:36.428Z,28.83
2018-11-22T21:55:07.259Z,29.60
2018-11-22T21:57:36.701Z,29.37
2018-11-22T22:00:09.900Z,28.87
2018-11-22T22:02:38.188Z,35.00
2018-11-22T22:05:06.928Z,43.00
2018-11-22T22:07:35.420Z,49.40
2018-11-22T22:10:03.662Z,41.33
2018-11-22T22:12:31.905Z,56.93
2018-11-22T22:15:00.302Z,39.00
2018-11-22T22:17:29.197Z,32.30
2018-11-22T22:19:57.484Z,48.23
2018-11-22T22:22:26.337Z,42.23
2018-11-22T22:24:54.523Z,31.60
2018-11-22T22:27:22.788Z,44.15
2018-11-22T22:29:51.013Z,49.83
2018-11-22T22:32:19.268Z,39.33
2018-11-22T22:34:47.580Z,33.23
2018-11-22T22:37:15.817Z,36.00
2018-11-22T22:39:44.048Z,40.23
2018-11-22T22:42:12.327Z,40.80
2018-11-22T22:44:40.572Z,50.13
2018-11-22T22:47:08.827Z,48.13
2018-11-22T22:49:37.115Z,32.30
2018-11-22T22:52:05.840Z,30.20
2018-11-22T22:54:34.960Z,31.93
2018-11-22T22:57:03.188Z,36.73
2018-11-22T22:59:32.541Z,34.83
2018-11-22T23:02:00.943Z,40.40
2018-11-22T23:04:29.909Z,33.38
2018-11-22T23:06:58.110Z,34.27
2018-11-22T23:09:26.332Z,31.35
2018-11-22T23:11:54.946Z,32.10
2018-11-22T23:14:23.165Z,34.70
2018-11-22T23:16:51.484Z,28.47
2018-11-22T23:19:19.725Z,34.67
2018-11-22T23:21:47.963Z,33.77
2018-11-22T23:24:20.327Z,34.47
2018-11-22T23:26:48.528Z,35.93
2018-11-22T23:29:16.752Z,37.40
2018-11-22T23:31:45.132Z,33.10
2018-11-22T23:34:13.308Z,36.40
2018-11-22T23:36:41.545Z,33.20
2018-11-22T23:39:14.489Z,36.47
2018-11-22T23:41:42.681Z,37.70
2018-11-22T23:44:10.939Z,38.67
2018-11-22T23:46:39.726Z,32.28
2018-11-22T23:49:07.948Z,35.47
2018-11-22T23:51:36.174Z,35.37
2018-11-22T23:54:04.650Z,40.90
2018-11-22T23:56:32.880Z,41.20
2018-11-22T23:59:01.115Z,36.03
